Flight Track Log - Related Links

Times and Time Zones

All times are in EST time to prevent confusion due to time zone crossing. See the AFL150 flight status page for this flight to view local times or setup timezone preferences in your user account.

Time Position Orientation Groundspeed Altitude Reporting Facility
EST Latitude Longitude Course Direction KTS MPH feet Rate Location/Type
Fri 11:47:34 AM 63.5833 -55.3333 233° Southwest 440 506 36,000  Level Gander Center
Fri 11:48:34 AM 63.5000 -55.5667 231° Southwest 450 518 36,000  Level Gander Center
Fri 11:49:00 AM 55.9000 -46.9501 307° West  Level Estimated
Fri 11:49:34 AM 63.5667 -55.7833 305° West 490 564 36,000  Level Gander Center
Fri 11:50:00 AM 55.8237 -47.1301 233° Southwest  Level Estimated
Fri 11:51:00 AM 55.7472 -47.3094 233° Southwest  Level Estimated
Fri 11:51:04 AM 63.3167 -56.1500 213° Southwest 450 518 36,000  Level Gander Center
Fri 11:52:00 AM 55.6704 -47.4881 233° Southwest  Level Estimated
Fri 11:52:04 AM 63.2500 -56.3833 238° Southwest 450 518 36,000  Level Gander Center
Fri 11:53:04 AM 63.1833 -56.6167 238° Southwest 450 518 36,000  Level Gander Center
Fri 11:54:04 AM 63.1000 -56.8167 227° Southwest 450 518 36,000  Level Gander Center
Fri 11:55:04 AM 63.0333 -57.0500 238° Southwest 450 518 36,000  Level Gander Center
Fri 11:56:04 AM 62.9500 -57.2833 232° Southwest 450 518 36,000  Level Gander Center
Fri 11:57:04 AM 62.8833 -57.5000 236° Southwest 450 518 36,000  Level Gander Center
Fri 11:58:04 AM 62.8167 -57.7000 234° Southwest 440 506 36,000  Level Gander Center
Fri 11:59:04 AM 62.7333 -57.9167 230° Southwest 450 518 36,000  Level Gander Center
Fri 12:00:04 PM 62.6500 -58.1500 232° Southwest 450 518 36,000  Level Gander Center
Fri 12:00:52 PM 62.5833 -58.2333 210° Southwest 440 506 36,000  Level Montreal Center
Fri 12:01:52 PM 62.5167 -58.4667 238° Southwest 450 518 36,000  Level Montreal Center
Fri 12:02:52 PM 62.4333 -58.7000 232° Southwest 450 518 36,000  Level Montreal Center
Fri 12:03:52 PM 62.3667 -58.8833 232° Southwest 450 518 36,000  Level Montreal Center
Fri 12:04:52 PM 62.2833 -59.1167 233° Southwest 450 518 36,000  Level Montreal Center
Fri 12:05:52 PM 62.2000 -59.3000 226° Southwest 450 518 36,000  Level Montreal Center
Fri 12:06:52 PM 62.1333 -59.5333 239° Southwest 450 518 36,000  Level Montreal Center
Fri 12:07:52 PM 62.0667 -59.7167 232° Southwest 450 518 36,000  Level Montreal Center
Fri 12:08:52 PM 62.0000 -59.8833 230° Southwest 450 518 36,000  Level Montreal Center
Fri 12:09:52 PM 61.9000 -60.1167 228° Southwest 450 518 36,000  Level Montreal Center
Fri 12:10:52 PM 61.8167 -60.3000 226° Southwest 450 518 36,000  Level Montreal Center
Fri 12:11:52 PM 61.7500 -60.5333 239° Southwest 450 518 36,000  Level Montreal Center
Fri 12:12:52 PM 61.6667 -60.7500 231° Southwest 460 529 36,000  Level Montreal Center
Fri 12:13:52 PM 61.5833 -60.9333 226° Southwest 480 552 36,000  Level Montreal Center
Fri 12:14:52 PM 61.5000 -61.1500 231° Southwest 470 541 36,000  Level Montreal Center
Fri 12:16:04 PM 61.4167 -61.4500 240° Southwest 450 518 36,000  Level Gander Center
Fri 12:17:04 PM 61.3167 -61.6667 226° Southwest 460 529 36,000  Level Gander Center
Fri 12:17:52 PM 61.2667 -61.7500 219° Southwest 450 518 36,000  Level Montreal Center
Fri 12:18:52 PM 61.1833 -61.9333 227° Southwest 460 529 36,000  Level Montreal Center
Fri 12:19:52 PM 61.1000 -62.1500 232° Southwest 460 529 36,000  Level Montreal Center
Fri 12:20:52 PM 61.0167 -62.3500 229° Southwest 460 529 36,000  Level Montreal Center
Fri 12:21:52 PM 60.9333 -62.5333 227° Southwest 460 529 36,000  Level Montreal Center
Fri 12:22:52 PM 60.8333 -62.7833 231° Southwest 470 541 36,000  Level Montreal Center
Fri 12:23:52 PM 60.7500 -62.9833 230° Southwest 460 529 36,000  Level Montreal Center
Fri 12:24:52 PM 60.6667 -63.2000 232° Southwest 460 529 36,000  Level Montreal Center
Fri 12:25:52 PM 60.5667 -63.3667 219° Southwest 460 529 36,000  Level Montreal Center
Fri 12:26:52 PM 60.4833 -63.5833 232° Southwest 460 529 36,000  Level Montreal Center
Fri 12:28:04 PM 60.4000 -63.8333 236° Southwest 460 529 36,000  Level Gander Center
Fri 12:29:04 PM 60.3000 -64.0333 225° Southwest 460 529 36,000  Level Gander Center
Fri 12:29:52 PM 60.2333 -64.1500 221° Southwest 450 518 36,000  Level Montreal Center
Fri 12:30:52 PM 60.1333 -64.3167 220° Southwest 450 518 36,000  Level Montreal Center
Fri 12:31:52 PM 60.0667 -64.5167 236° Southwest 450 518 36,000  Level Montreal Center
Fri 12:32:52 PM 59.9833 -64.6833 225° Southwest 460 529 36,000  Level Montreal Center
Fri 12:33:52 PM 59.9000 -64.8833 230° Southwest 450 518 36,000  Level Montreal Center
Fri 12:34:52 PM 59.8000 -65.0833 225° Southwest 450 518 36,000  Level Montreal Center
Fri 12:35:52 PM 59.7000 -65.2333 217° Southwest 450 518 36,000  Level Montreal Center
Fri 12:36:52 PM 59.6167 -65.4333 231° Southwest 450 518 36,000  Level Montreal Center
Fri 12:37:52 PM 59.5333 -65.6333 231° Southwest 460 529 36,000  Level Montreal Center
Fri 12:38:52 PM 59.4500 -65.7833 222° Southwest 460 529 36,000  Level Montreal Center
Fri 12:39:52 PM 59.3667 -65.9833 231° Southwest 460 529 36,000  Level Montreal Center
Fri 12:40:52 PM 59.2667 -66.1667 223° Southwest 460 529 36,000  Level Montreal Center
Fri 12:41:52 PM 59.1833 -66.3333 226° Southwest 460 529 36,000  Level Montreal Center
Fri 12:42:52 PM 59.1000 -66.5167 229° Southwest 460 529 36,000  Level Montreal Center
Fri 12:43:52 PM 59.0000 -66.6667 218° Southwest 460 529 36,000  Level Montreal Center
Fri 12:44:52 PM 58.9167 -66.8667 231° Southwest 460 529 36,000  Level Montreal Center
Fri 12:45:52 PM 58.8333 -67.0500 229° Southwest 460 529 36,000  Level Montreal Center
Fri 12:46:52 PM 58.7333 -67.2000 218° Southwest 460 529 36,000  Level Montreal Center
Fri 12:47:52 PM 58.6500 -67.3833 229° Southwest 460 529 36,000  Level Montreal Center
Fri 12:48:52 PM 58.5500 -67.5667 224° Southwest 450 518 36,000  Level Montreal Center
Fri 12:49:52 PM 58.4667 -67.7167 223° Southwest 450 518 36,000  Level Montreal Center
Fri 12:50:52 PM 58.3667 -67.9000 224° Southwest 460 529 36,000  Level Montreal Center
Fri 12:51:52 PM 58.2833 -68.0833 229° Southwest 460 529 36,000  Level Montreal Center
Fri 12:52:52 PM 58.2000 -68.2667 229° Southwest 470 541 36,000  Level Montreal Center
Fri 12:54:09 PM 58.0667 -68.4167 211° Southwest 530 610 36,000  Level Montreal Center
Fri 12:55:09 PM 57.9667 -68.5667 219° Southwest 460 529 36,000  Level Montreal Center
Fri 12:56:09 PM 57.8667 -68.7167 219° Southwest 450 518 36,000  Level Montreal Center
Fri 12:57:09 PM 57.7667 -68.8500 215° Southwest 450 518 36,000  Level Montreal Center
Fri 12:58:09 PM 57.6667 -69.0000 219° Southwest 450 518 36,000  Level Montreal Center
Fri 12:59:09 PM 57.5667 -69.1167 212° Southwest 450 518 36,000  Level Montreal Center
Fri 01:00:09 PM 57.4500 -69.2667 215° Southwest 450 518 36,000  Level Montreal Center
Fri 01:01:09 PM 57.3667 -69.4000 221° Southwest 450 518 36,000  Level Montreal Center
Fri 01:02:09 PM 57.2500 -69.5500 215° Southwest 450 518 36,000  Level Montreal Center
Fri 01:03:09 PM 57.1333 -69.7000 215° Southwest 450 518 36,000  Level Montreal Center
Fri 01:04:09 PM 57.0500 -69.8000 213° Southwest 450 518 36,000  Level Montreal Center
Fri 01:05:09 PM 56.9500 -69.9333 216° Southwest 450 518 36,000  Level Montreal Center
Fri 01:06:09 PM 56.8333 -70.0833 215° Southwest 450 518 36,000  Level Montreal Center
Fri 01:07:09 PM 56.7500 -70.2167 221° Southwest 450 518 36,000  Level Montreal Center
Fri 01:08:09 PM 56.6333 -70.3667 215° Southwest 450 518 36,000  Level Montreal Center
Fri 01:09:09 PM 56.5333 -70.4667 209° Southwest 450 518 36,000  Level Montreal Center
Fri 01:10:09 PM 56.4167 -70.6000 212° Southwest 450 518 36,000  Level Montreal Center
Fri 01:11:09 PM 56.3333 -70.7333 222° Southwest 450 518 36,000  Level Montreal Center
Fri 01:12:09 PM 56.2167 -70.8500 209° Southwest 450 518 36,000  Level Montreal Center
Fri 01:13:09 PM 56.1167 -70.9833 217° Southwest 450 518 36,000  Level Montreal Center
Fri 01:14:09 PM 56.0000 -71.1167 213° Southwest 450 518 36,000  Level Montreal Center
Fri 01:15:09 PM 55.9000 -71.2500 217° Southwest 450 518 36,000  Level Montreal Center
Fri 01:16:09 PM 55.8000 -71.3500 209° Southwest 450 518 36,000  Level Montreal Center
Fri 01:17:09 PM 55.6833 -71.4833 213° Southwest 450 518 36,000  Level Montreal Center
Fri 01:18:09 PM 55.5833 -71.6167 217° Southwest 450 518 36,000  Level Montreal Center
Fri 01:19:09 PM 55.4833 -71.7167 210° Southwest 440 506 36,000  Level Montreal Center
Fri 01:20:09 PM 55.3667 -71.8500 213° Southwest 450 518 36,000  Level Montreal Center
Fri 01:21:09 PM 55.2833 -71.9667 219° Southwest 440 506 36,000  Level Montreal Center
Fri 01:22:09 PM 55.1833 -72.1000 217° Southwest 440 506 36,000  Level Montreal Center
Fri 01:23:09 PM 55.0667 -72.2000 206° Southwest 440 506 36,000  Level Montreal Center
Fri 01:24:09 PM 54.9667 -72.3167 214° Southwest 440 506 36,000  Level Montreal Center
Fri 01:25:09 PM 54.8667 -72.4167 210° Southwest 440 506 36,000  Level Montreal Center
Fri 01:26:09 PM 54.7500 -72.5500 213° Southwest 440 506 36,000  Level Montreal Center
Fri 01:27:09 PM 54.6667 -72.6667 219° Southwest 430 495 36,000  Level Montreal Center
Fri 01:28:09 PM 54.5500 -72.8000 214° Southwest 430 495 36,000  Level Montreal Center
Fri 01:29:09 PM 54.4500 -72.9000 210° Southwest 440 506 36,000  Level Montreal Center
Fri 01:30:09 PM 54.3500 -73.0167 214° Southwest 440 506 36,000  Level Montreal Center
Fri 01:31:09 PM 54.2500 -73.1167 210° Southwest 440 506 36,000  Level Montreal Center
Fri 01:32:09 PM 54.1333 -73.2333 210° Southwest 440 506 36,000  Level Montreal Center
Fri 01:33:09 PM 54.0333 -73.3500 214° Southwest 440 506 36,000  Level Montreal Center
Fri 01:34:09 PM 53.9333 -73.4500 210° Southwest 430 495 36,000  Level Montreal Center
Fri 01:35:09 PM 53.8333 -73.5667 215° Southwest 430 495 36,000  Level Montreal Center
Fri 01:36:09 PM 53.7333 -73.6500 206° Southwest 430 495 36,000  Level Montreal Center
Fri 01:37:09 PM 53.6167 -73.7833 214° Southwest 440 506 36,000  Level Montreal Center
Fri 01:38:09 PM 53.5167 -73.8667 206° Southwest 430 495 36,000  Level Montreal Center
Fri 01:39:09 PM 53.4000 -73.9500 203° Southwest 440 506 36,000  Level Montreal Center
Fri 01:40:09 PM 53.2833 -74.0500 207° Southwest 440 506 36,000  Level Montreal Center
Fri 01:41:09 PM 53.1667 -74.1333 203° Southwest 440 506 36,000  Level Montreal Center
Fri 01:42:09 PM 53.0667 -74.2333 211° Southwest 440 506 36,000  Level Montreal Center
Fri 01:43:09 PM 52.9500 -74.3167 203° Southwest 440 506 36,000  Level Montreal Center
Fri 01:44:09 PM 52.8333 -74.4000 203° Southwest 440 506 36,000  Level Montreal Center
Fri 01:45:09 PM 52.7333 -74.4833 207° Southwest 440 506 36,000  Level Montreal Center
Fri 01:46:09 PM 52.6333 -74.6000 215° Southwest 440 506 36,000  Level Montreal Center
Fri 01:47:09 PM 52.5333 -74.6833 207° Southwest 450 518 36,000  Level Montreal Center
Fri 01:48:09 PM 52.4000 -74.7833 205° Southwest 440 506 36,000  Level Montreal Center
Fri 01:49:09 PM 52.2833 -74.8667 204° Southwest 420 483 36,000  Level Montreal Center
Fri 01:50:09 PM 52.1833 -74.9500 207° Southwest 440 506 36,000  Level Montreal Center
Fri 01:51:09 PM 52.0667 -75.0333 204° Southwest 440 506 36,000  Level Montreal Center
Fri 01:52:09 PM 51.9500 -75.1167 204° Southwest 460 529 36,000  Level Montreal Center
Fri 01:53:09 PM 51.8333 -75.2000 204° Southwest 450 518 36,000  Level Montreal Center
Fri 01:54:09 PM 51.7333 -75.2833 207° Southwest 450 518 36,000  Level Montreal Center
Fri 01:55:09 PM 51.6167 -75.4000 212° Southwest 450 518 36,000  Level Montreal Center
Fri 01:56:09 PM 51.5000 -75.4833 204° Southwest 450 518 36,000  Level Montreal Center
Fri 01:57:09 PM 51.3833 -75.5667 204° Southwest 450 518 36,000  Level Montreal Center
Fri 01:58:09 PM 51.2833 -75.6500 208° Southwest 450 518 36,000  Level Montreal Center
Fri 01:59:09 PM 51.1667 -75.7167 200° South 440 506 36,000  Level Montreal Center
Fri 02:00:09 PM 51.0500 -75.8000 204° Southwest 440 506 36,000  Level Montreal Center
Fri 02:01:09 PM 50.9333 -75.8833 204° Southwest 450 518 36,000  Level Montreal Center
Fri 02:02:09 PM 50.8333 -75.9667 208° Southwest 450 518 36,000  Level Montreal Center
Fri 02:03:09 PM 50.7167 -76.0667 208° Southwest 450 518 36,000  Level Montreal Center
Fri 02:04:09 PM 50.6000 -76.1500 204° Southwest 450 518 36,000  Level Montreal Center
Fri 02:05:09 PM 50.5000 -76.2333 208° Southwest 450 518 36,000  Level Montreal Center
Fri 02:06:09 PM 50.3833 -76.3167 204° Southwest 450 518 36,000  Level Montreal Center
Fri 02:07:09 PM 50.2667 -76.3833 200° South 450 518 36,000  Level Montreal Center
Fri 02:08:09 PM 50.1500 -76.4667 205° Southwest 450 518 36,000  Level Montreal Center
Fri 02:09:09 PM 50.0167 -76.5333 198° South 450 518 36,000  Level Montreal Center
Fri 02:10:09 PM 49.9000 -76.6500 213° Southwest 450 518 36,000  Level Montreal Center
Fri 02:11:09 PM 49.8000 -76.7167 203° Southwest 450 518 36,000  Level Montreal Center
Fri 02:12:09 PM 49.6667 -76.8000 202° Southwest 460 529 36,000  Level Montreal Center
Fri 02:13:09 PM 49.5667 -76.8667 203° Southwest 450 518 36,000  Level Montreal Center
Fri 02:14:09 PM 49.4500 -76.9500 205° Southwest 450 518 36,000  Level Montreal Center
Fri 02:15:09 PM 49.3333 -77.0500 209° Southwest 470 541 36,000  Level Montreal Center
Fri 02:16:09 PM 49.2333 -77.1167 204° Southwest 430 495 36,000  Level Montreal Center
Fri 02:17:09 PM 49.1000 -77.2000 202° Southwest 450 518 36,000  Level Montreal Center
Fri 02:18:09 PM 49.0000 -77.2667 204° Southwest 450 518 36,000  Level Montreal Center
Fri 02:19:09 PM 48.8667 -77.3500 202° Southwest 450 518 36,000  Level Montreal Center
Fri 02:20:09 PM 48.7500 -77.4500 209° Southwest 450 518 36,000  Level Montreal Center
Fri 02:21:09 PM 48.6500 -77.5167 204° Southwest 450 518 36,000  Level Montreal Center
Fri 02:22:09 PM 48.5167 -77.5833 198° South 450 518 36,000  Level Montreal Center
Fri 02:23:09 PM 48.4167 -77.6667 209° Southwest 460 529 36,000  Level Montreal Center
Fri 02:24:09 PM 48.3000 -77.7333 201° Southwest 450 518 36,000  Level Montreal Center
Fri 02:25:09 PM 48.1833 -77.8333 210° Southwest 450 518 36,000  Level Montreal Center
Fri 02:26:09 PM 48.0667 -77.9000 201° Southwest 460 529 36,000  Level Montreal Center
Fri 02:27:09 PM 47.9333 -77.9500 194° South 460 529 36,000  Level Montreal Center
Fri 02:28:09 PM 47.8167 -78.0167 201° Southwest 460 529 36,000  Level Montreal Center
Fri 02:29:09 PM 47.7000 -78.0833 201° Southwest 460 529 36,000  Level Montreal Center
Fri 02:30:09 PM 47.5833 -78.1500 201° Southwest 460 529 36,000  Level Montreal Center
Fri 02:31:09 PM 47.4667 -78.2333 206° Southwest 450 518 36,000  Level Montreal Center
Fri 02:32:09 PM 47.3500 -78.3000 201° Southwest 450 518 36,000  Level Montreal Center
Fri 02:33:09 PM 47.2333 -78.3667 201° Southwest 450 518 36,000  Level Montreal Center
Fri 02:34:09 PM 47.1000 -78.4333 199° South 460 529 36,000  Level Montreal Center
Fri 02:35:09 PM 46.9833 -78.5000 201° Southwest 460 529 36,000  Level Montreal Center
Fri 02:36:09 PM 46.8667 -78.5333 191° South 460 529 36,000  Level Toronto Center
Fri 02:37:09 PM 46.7500 -78.6167 206° Southwest 460 529 36,000  Level Toronto Center
Fri 02:38:09 PM 46.6333 -78.6833 201° Southwest 460 529 36,000  Level Toronto Center
Fri 02:39:09 PM 46.5167 -78.7333 196° South 460 529 36,000  Level Toronto Center
Fri 02:40:09 PM 46.4000 -78.8167 206° Southwest 460 529 36,000  Level Toronto Center
Fri 02:41:09 PM 46.2667 -78.8833 199° South 460 529 36,000  Level Toronto Center
Fri 02:42:09 PM 46.1500 -78.9333 197° South 460 529 36,000  Level Toronto Center
Fri 02:43:09 PM 46.0333 -79.0000 202° Southwest 460 529 36,000  Level Toronto Center
Fri 02:44:09 PM 45.9167 -79.0833 206° Southwest 460 529 36,000  Level Toronto Center
Fri 02:45:09 PM 45.8000 -79.1333 197° South 460 529 36,000  Level Toronto Center
Fri 02:46:09 PM 45.6667 -79.2000 199° South 460 529 36,000  Level Toronto Center
Fri 02:47:09 PM 45.5500 -79.2500 197° South 470 541 36,000  Level Toronto Center
Fri 02:48:09 PM 45.4333 -79.3167 202° Southwest 470 541 36,000  Level Toronto Center
Fri 02:49:09 PM 45.3000 -79.4000 204° Southwest 470 541 36,000  Level Toronto Center
Fri 02:50:09 PM 45.1833 -79.4500 197° South 470 541 36,000  Level Toronto Center
Fri 02:51:09 PM 45.0667 -79.5167 202° Southwest 480 552 36,000  Level Toronto Center
Fri 02:52:09 PM 44.9500 -79.5833 202° Southwest 470 541 36,000  Level Toronto Center
Fri 02:53:09 PM 44.8167 -79.6500 200° South 470 541 36,000  Level Toronto Center
Fri 02:54:09 PM 44.7000 -79.7000 197° South 470 541 36,000  Level Toronto Center
Fri 02:55:09 PM 44.5667 -79.7667 200° South 470 541 36,000  Level Toronto Center
Fri 02:56:09 PM 44.4667 -79.8667 216° Southwest 460 529 36,000  Level Toronto Center
Fri 02:57:09 PM 44.3667 -79.9667 216° Southwest 450 518 36,000  Level Toronto Center
Fri 02:58:09 PM 44.2500 -80.0500 207° Southwest 450 518 36,000  Level Toronto Center
Fri 02:59:09 PM 44.1500 -80.1500 216° Southwest 450 518 36,000  Level Toronto Center
Fri 03:00:09 PM 44.0500 -80.2667 220° Southwest 450 518 36,000  Level Toronto Center
Fri 03:01:09 PM 43.9500 -80.3333 206° Southwest 450 518 36,000  Level Toronto Center
Fri 03:02:09 PM 43.8333 -80.4500 216° Southwest 450 518 36,000  Level Toronto Center
Fri 03:03:09 PM 43.7333 -80.5333 211° Southwest 460 529 36,000  Level Toronto Center
Fri 03:04:09 PM 43.6167 -80.6167 207° Southwest 450 518 36,000  Level Toronto Center
Fri 03:05:09 PM 43.5167 -80.7167 216° Southwest 450 518 36,000  Level Toronto Center
Fri 03:06:09 PM 43.4167 -80.8000 211° Southwest 450 518 36,000  Level Toronto Center
Fri 03:07:09 PM 43.2833 -80.9000 209° Southwest 450 518 36,000  Level Toronto Center
Fri 03:08:09 PM 43.1833 -80.9833 211° Southwest 460 529 36,000  Level Toronto Center
Fri 03:09:09 PM 43.0833 -81.1000 220° Southwest 450 518 36,000  Level Toronto Center
Fri 03:10:09 PM 42.9667 -81.1667 203° Southwest 460 529 36,000  Level Toronto Center
Fri 03:11:09 PM 42.8500 -81.2500 208° Southwest 460 529 36,000  Level Toronto Center
Fri 03:12:09 PM 42.7333 -81.3167 203° Southwest 460 529 36,000  Level Toronto Center
Fri 03:13:09 PM 42.6333 -81.3833 206° Southwest 460 529 36,000  Level Toronto Center
Fri 03:14:09 PM 42.5000 -81.4667 205° Southwest 460 529 36,000  Level Toronto Center
Fri 03:15:09 PM 42.3833 -81.5333 203° Southwest 460 529 36,000  Level Toronto Center
Fri 03:16:09 PM 42.2833 -81.6000 206° Southwest 460 529 36,000  Level Toronto Center
Fri 03:23:43 PM 41.4089 -82.1308 196° South 456 525 36,000  Level Cleveland Center
Fri 03:24:45 PM 41.2872 -82.1850 198° South 458 527 36,000  Level Cleveland Center
Fri 03:25:00 PM 41.4284 -82.1039 204° Southwest  Level FlightAware Approximate
Fri 03:25:47 PM 41.1631 -82.2300 195° South 460 529 36,000  Level Cleveland Center
Fri 03:26:00 PM 41.3268 -82.1587 196° South  Level FlightAware Approximate
Fri 03:26:49 PM 41.0386 -82.2750 195° South 461 531 36,000  Level Cleveland Center
Fri 03:27:00 PM 41.2211 -82.1984 196° South  Level FlightAware Approximate
Fri 03:27:51 PM 40.9131 -82.3208 195° South 462 532 36,000  Level Cleveland Center
Fri 03:28:00 PM 41.1153 -82.2380 196° South  Level FlightAware Approximate
Fri 03:28:30 PM 40.8292 -82.3506 195° South 463 533 36,000  Level Indianapolis Center
Fri 03:29:00 PM 41.0096 -82.2774 196° South  Level FlightAware Approximate
Fri 03:29:32 PM 40.7031 -82.3956 195° South 466 536 36,000  Level Indianapolis Center
Fri 03:30:34 PM 40.5781 -82.4383 195° South 463 533 36,000  Level Indianapolis Center
Fri 03:31:36 PM 40.4328 -82.4906 195° South 459 528 36,000  Level Indianapolis Center
Fri 03:32:38 PM 40.3081 -82.5336 195° South 461 531 36,000  Level Indianapolis Center
Fri 03:33:41 PM 40.1942 -82.5750 196° South 460 529 36,000  Level Indianapolis Center
Fri 03:34:43 PM 40.0636 -82.5931 186° South 468 539 36,000  Level Indianapolis Center
Fri 03:35:45 PM 39.9067 -82.6050 183° South 469 540 36,000  Level Indianapolis Center
Fri 03:36:47 PM 39.7747 -82.6144 183° South 471 542 36,000  Level Indianapolis Center
Fri 03:37:49 PM 39.6428 -82.6236 183° South 472 543 36,000  Level Indianapolis Center
Fri 03:38:51 PM 39.5100 -82.6325 183° South 474 545 36,000  Level Indianapolis Center
Fri 03:39:53 PM 39.3767 -82.6403 183° South 477 549 36,000  Level Indianapolis Center
Fri 03:40:55 PM 39.2456 -82.6497 183° South 472 543 36,000  Level Indianapolis Center
Fri 03:41:57 PM 39.1072 -82.6581 183° South 469 540 36,000  Level Indianapolis Center
Fri 03:42:59 PM 38.9758 -82.6669 183° South 473 544 36,000  Level Indianapolis Center
Fri 03:44:01 PM 38.8183 -82.6772 183° South 472 543 36,000  Level Indianapolis Center
Fri 03:45:03 PM 38.6872 -82.6861 183° South 471 542 36,000  Level Indianapolis Center
Fri 03:46:05 PM 38.5669 -82.6928 182° South 468 539 36,000  Level Indianapolis Center
Fri 03:47:07 PM 38.4125 -82.7033 183° South 472 543 36,000  Level Indianapolis Center
Fri 03:48:09 PM 38.2800 -82.7114 183° South 475 547 36,000  Level Indianapolis Center
Fri 03:49:11 PM 38.1489 -82.7214 183° South 470 541 36,000  Level Indianapolis Center
Fri 03:50:13 PM 38.0186 -82.7317 184° South 466 536 36,000  Level Indianapolis Center
Fri 03:51:15 PM 37.8875 -82.7394 183° South 469 540 36,000  Level Indianapolis Center
Fri 03:52:17 PM 37.7333 -82.7511 183° South 473 544 36,000  Level Indianapolis Center
Fri 03:53:19 PM 37.6106 -82.7975 197° South 460 529 36,000  Level Indianapolis Center
Fri 03:54:21 PM 37.5011 -82.8683 207° Southwest 444 511 36,000  Level Indianapolis Center
Fri 03:55:23 PM 37.3936 -82.9406 208° Southwest 440 506 36,000  Level Indianapolis Center
Fri 03:56:25 PM 37.2856 -83.0103 207° Southwest 437 503 36,000  Level Indianapolis Center
Fri 03:57:27 PM 37.1611 -83.0908 207° Southwest 434 499 36,000  Level Indianapolis Center
Fri 03:58:29 PM 37.0544 -83.1603 207° Southwest 435 501 36,000  Level Indianapolis Center
Fri 03:59:31 PM 36.9481 -83.2297 208° Southwest 436 502 36,000  Level Indianapolis Center
Fri 04:00:33 PM 36.8394 -83.2992 207° Southwest 441 507 36,000  Level Indianapolis Center
Fri 04:01:35 PM 36.7308 -83.3692 207° Southwest 441 507 36,000  Level Indianapolis Center
Fri 04:02:37 PM 36.6031 -83.4514 207° Southwest 443 510 36,000  Level Indianapolis Center
Fri 04:03:39 PM 36.4997 -83.5175 207° Southwest 445 512 36,000  Level Indianapolis Center
Fri 04:04:41 PM 36.3911 -83.5881 208° Southwest 441 507 36,000  Level Indianapolis Center
Fri 04:05:43 PM 36.2817 -83.6569 207° Southwest 440 506 36,000  Level Indianapolis Center
Fri 04:06:45 PM 36.1519 -83.7406 207° Southwest 437 503 36,000  Level Indianapolis Center
Fri 04:07:46 PM 36.0439 -83.8064 206° Southwest 432 497 36,000  Level Indianapolis Center
Fri 04:08:48 PM 35.9389 -83.8722 207° Southwest 424 488 36,000  Level Indianapolis Center
Fri 04:09:50 PM 35.8206 -83.9142 196° South 437 503 36,000  Level Indianapolis Center
Fri 04:12:06 PM 35.5450 -83.9825 191° South 452 520 36,000  Level Atlanta Center
Fri 04:13:06 PM 35.4242 -84.0133 192° South 452 520 36,000  Level Atlanta Center
Fri 04:14:06 PM 35.3011 -84.0439 191° South 452 520 36,000  Level Atlanta Center
Fri 04:15:06 PM 35.1736 -84.0719 190° South 452 520 36,000  Level Atlanta Center
Fri 04:16:06 PM 35.0528 -84.1022 192° South 452 520 36,000 30 Level Atlanta Center
Fri 04:25:06 PM 33.9461 -84.3644 179° South 458 527 36,300 90 Climbing Atlanta Center
Fri 04:26:00 PM 33.9841 -84.3452 191° South  Level FlightAware Approximate
Fri 04:26:06 PM 33.8189 -84.3939 191° South 452 520 36,900  Level Atlanta Center
Fri 04:27:00 PM 33.8764 -84.3711 191° South  Level FlightAware Approximate
Fri 04:27:06 PM 33.6997 -84.4183 190° South 447 514 37,000  Level Atlanta Center
Fri 04:28:00 PM 33.7687 -84.3969 191° South  Level FlightAware Approximate
Fri 04:28:06 PM 33.5619 -84.4353 186° South 452 520 37,000  Level Atlanta Center
Fri 04:29:00 PM 33.6610 -84.4227 191° South  Level FlightAware Approximate
Fri 04:29:06 PM 33.4367 -84.4347 180° South 452 520 37,000  Level Atlanta Center
Fri 04:30:00 PM 33.5370 -84.4311 179° South  Level FlightAware Approximate
Fri 04:30:06 PM 33.3114 -84.4317 179° South 458 527 37,000  Level Atlanta Center
Fri 04:31:06 PM 33.1819 -84.4311 180° South 458 527 37,000  Level Atlanta Center
Fri 04:32:06 PM 33.0547 -84.4278 179° South 458 527 37,000  Level Atlanta Center
Fri 04:33:06 PM 32.9233 -84.4275 180° South 463 533 37,000  Level Atlanta Center
Fri 04:34:06 PM 32.8106 -84.4244 179° South 458 527 37,000  Level Atlanta Center
Fri 04:35:06 PM 32.6728 -84.4164 177° South 458 527 37,000  Level Atlanta Center
Fri 04:36:06 PM 32.5456 -84.4133 179° South 458 527 37,000  Level Atlanta Center
Fri 04:37:06 PM 32.4203 -84.4128 180° South 458 527 37,000  Level Atlanta Center
Fri 04:38:06 PM 32.2950 -84.4100 179° South 458 527 37,000  Level Atlanta Center
Fri 04:39:06 PM 32.1678 -84.4069 179° South 458 527 37,000  Level Atlanta Center
Fri 04:40:06 PM 32.0425 -84.4064 180° South 458 527 37,000  Level Atlanta Center
Fri 04:40:42 PM 31.9675 -84.4036 178° South 459 528 37,000  Level Jacksonville Center
Fri 04:41:42 PM 31.8403 -84.3989 178° South 454 522 37,000  Level Jacksonville Center
Fri 04:42:42 PM 31.7150 -84.3969 179° South 454 522 37,000  Level Jacksonville Center
Fri 04:43:42 PM 31.5919 -84.3925 178° South 454 522 37,000  Level Jacksonville Center
Fri 04:44:42 PM 31.4644 -84.3931 180° South 454 522 37,000  Level Jacksonville Center
Fri 04:45:42 PM 31.3414 -84.3911 179° South 454 522 37,000  Level Jacksonville Center
Fri 04:46:42 PM 31.2144 -84.3622 169° South 468 539 37,000  Level Jacksonville Center
Fri 04:47:42 PM 31.0878 -84.2825 152° Southeast 476 548 37,000  Level Jacksonville Center
Fri 04:48:42 PM 30.9572 -84.2081 154° Southeast 492 566 37,000  Level Jacksonville Center
Fri 04:49:42 PM 30.8306 -84.1314 153° Southeast 510 587 37,000  Level Jacksonville Center
Fri 04:50:42 PM 30.7039 -84.0594 154° Southeast 510 587 37,000  Level Jacksonville Center
Fri 04:51:42 PM 30.5772 -83.9856 153° Southeast 502 578 37,000  Level Jacksonville Center
Fri 04:52:42 PM 30.4733 -83.9267 154° Southeast 484 557 37,000  Level Jacksonville Center
Fri 04:53:42 PM 30.3528 -83.8578 154° Southeast 484 557 37,000  Level Jacksonville Center
Fri 04:54:42 PM 30.2278 -83.7869 154° Southeast 489 563 37,000  Level Jacksonville Center
Fri 04:55:42 PM 30.1031 -83.7186 155° Southeast 489 563 37,000  Level Jacksonville Center
Fri 04:56:42 PM 29.9783 -83.6478 154° Southeast 489 563 37,000  Level Jacksonville Center
Fri 04:57:42 PM 29.8556 -83.5822 155° Southeast 489 563 37,000  Level Jacksonville Center
Fri 04:58:42 PM 29.7264 -83.5311 161° South 489 563 37,000  Level Jacksonville Center
Fri 04:59:42 PM 29.5992 -83.4778 160° South 489 563 37,000  Level Jacksonville Center
Fri 05:00:42 PM 29.4700 -83.4222 159° South 489 563 37,000  Level Jacksonville Center
Fri 05:01:42 PM 29.3408 -83.3667 159° South 489 563 37,000  Level Jacksonville Center
Fri 05:02:42 PM 29.2117 -83.3136 160° South 489 563 37,000  Level Jacksonville Center
Fri 05:03:42 PM 29.0822 -83.2561 159° South 489 563 37,000  Level Jacksonville Center
Fri 05:04:42 PM 28.9550 -83.2058 161° South 489 563 37,000  Level Jacksonville Center
Fri 05:05:42 PM 28.8278 -83.1508 159° South 484 557 37,000  Level Jacksonville Center
Fri 05:06:42 PM 28.6839 -83.0889 159° South 489 563 37,000  Level Jacksonville Center
Fri 05:07:42 PM 28.5547 -83.0392 161° South 489 563 37,000  Level Jacksonville Center
Fri 05:08:42 PM 28.4275 -82.9847 159° South 489 563 37,000  Level Jacksonville Center
Fri 05:09:42 PM 28.3169 -82.9372 159° South 483 556 37,000  Level Jacksonville Center
Fri 05:10:42 PM 28.1853 -82.8831 160° South 489 563 37,000  Level Jacksonville Center
Fri 05:13:12 PM 27.8647 -82.7514 160° South 496 571 37,000  Level Miami Center
Fri 05:14:12 PM 27.7275 -82.6925 159° South 491 565 37,000  Level Miami Center
Fri 05:15:12 PM 27.5958 -82.6439 162° South 491 565 37,000  Level Miami Center
Fri 05:16:12 PM 27.4853 -82.5936 158° South 486 559 37,000  Level Miami Center
Fri 05:17:12 PM 27.3597 -82.5453 161° South 481 554 37,000  Level Miami Center
Fri 05:18:12 PM 27.2344 -82.4925 159° South 481 554 37,000  Level Miami Center
Fri 05:19:12 PM 27.1072 -82.4419 161° South 481 554 37,000  Level Miami Center
Fri 05:20:12 PM 26.9817 -82.3917 160° South 481 554 37,000  Level Miami Center
Fri 05:21:12 PM 26.8564 -82.3417 160° South 476 548 37,000  Level Miami Center
Fri 05:22:12 PM 26.7289 -82.2892 160° South 481 554 37,000  Level Miami Center
Fri 05:23:12 PM 26.6111 -82.2025 147° Southeast 487 560 37,000  Level Miami Center
Fri 05:24:12 PM 26.5022 -82.1000 140° Southeast 500 575 37,000  Level Miami Center
Fri 05:25:12 PM 26.3928 -82.0047 142° Southeast 505 581 37,000  Level Miami Center
Fri 05:26:12 PM 26.2900 -81.8961 137° Southeast 512 589 37,000  Level Miami Center
Fri 05:27:12 PM 26.1761 -81.8081 145° Southeast 506 582 37,000  Level Miami Center
Fri 05:28:12 PM 26.0533 -81.7381 153° Southeast 496 571 37,000  Level Miami Center
Fri 05:29:12 PM 25.9275 -81.6869 160° South 481 554 37,000  Level Miami Center
Fri 05:30:12 PM 25.8039 -81.6381 160° South 486 559 37,000  Level Miami Center
Fri 05:31:12 PM 25.6783 -81.5869 160° South 481 554 37,000  Level Miami Center
Fri 05:32:12 PM 25.5561 -81.5547 167° South 475 547 37,000  Level Miami Center
Fri 05:33:12 PM 25.4289 -81.5497 178° South 464 534 37,000  Level Miami Center
Fri 05:34:12 PM 25.3092 -81.5681 188° South 451 519 37,000  Level Miami Center
Fri 05:35:12 PM 25.1933 -81.6025 195° South 439 505 37,000  Level Miami Center
Fri 05:36:12 PM 25.0750 -81.6392 196° South 439 505 37,000  Level Miami Center
Fri 05:37:12 PM 24.9614 -81.6714 194° South 434 499 37,000 -200 Level Miami Center
Fri 05:38:12 PM 24.8433 -81.7036 194° South 434 499 36,600 -650 Descending Miami Center
Fri 05:39:12 PM 24.7294 -81.7403 196° South 434 499 35,700 -950 Descending Miami Center
Fri 05:40:12 PM 24.6111 -81.7789 197° South 440 506 34,700 -950 Descending Miami Center
Fri 05:41:12 PM 24.5106 -81.8525 214° Southwest 435 501 33,800 -950 Descending Miami Center
Fri 05:42:12 PM 24.4389 -81.9364 227° Southwest 403 464 32,800 -1,050 Descending Miami Center
Fri 05:43:12 PM 24.3686 -82.0336 232° Southwest 403 464 31,700 -1,300 Descending Miami Center
Fri 05:44:12 PM 24.2986 -82.1264 230° Southwest 403 464 30,200 -1,850 Descending Miami Center
Fri 05:45:12 PM 24.2286 -82.2169 230° Southwest 403 464 28,000 -1,950 Descending Miami Center
Fri 05:46:12 PM 24.1586 -82.3050 229° Southwest 393 452 26,300 -1,700 Descending Miami Center

Login

Don't have an account? Register now (free) for customized features, flight alerts, and more!